Terminal Aerodrome Forecast
Issued by NWS Missoula, MT

Home | Current Version | Previous Version | Text Only | Print | Product List | Glossary On
Versions: 1 2 3 4 5 6 7 8 9 10 11 12
630
FTUS45 KMSO 241120
TAFGPI
TAF
KGPI 241120Z 2412/2512 00000KT P6SM VCFG BKN050
     FM241700 16005KT P6SM BKN060=

USA.gov is the U.S. government's official web portal to all federal, state and local government web resources and services.